Time;durP1;ratioP1;P1;durP2;ratioP2;P2;SDS_P1;SDS_P2;PMS_P1;PMS_P2;Temp;Humidity;BMP_temperature;BMP_pressure;BME280_temperature;BME280_humidity;BME280_pressure;Samples;Min_cycle;Max_cycle;Signal;HPM_P1;HPM_P2
2021/12/06 00:00:55;;;;;;;7.37;6.00;;;;;;;2.77;88.63;101525.84;5052929;28;20434;-43
2021/12/06 00:03:28;;;;;;;5.93;5.43;;;;;;;2.76;88.54;101520.69;5052441;28;20431;-44
2021/12/06 00:05:57;;;;;;;7.37;6.63;;;;;;;2.77;88.87;101530.28;5053036;28;20451;-43
2021/12/06 00:08:26;;;;;;;7.10;5.87;;;;;;;2.74;88.78;101520.00;5053005;28;20910;-45
2021/12/06 00:10:53;;;;;;;7.20;6.50;;;;;;;2.72;89.09;101520.13;5052889;28;20436;-44
2021/12/06 00:13:23;;;;;;;7.83;5.03;;;;;;;2.69;88.30;101524.78;5051888;28;20482;-45
2021/12/06 00:15:51;;;;;;;9.83;5.93;;;;;;;2.72;87.75;101532.44;5052509;28;20550;-45
2021/12/06 00:18:20;;;;;;;8.27;6.40;;;;;;;2.72;87.82;101535.91;5052841;28;20423;-43
2021/12/06 00:20:48;;;;;;;6.43;6.03;;;;;;;2.78;87.75;101540.69;5052609;28;20933;-42
2021/12/06 00:23:15;;;;;;;5.37;5.17;;;;;;;2.76;88.15;101531.25;5051944;28;20450;-42
2021/12/06 00:25:44;;;;;;;6.53;5.93;;;;;;;2.72;88.42;101532.44;5052572;28;20968;-45
2021/12/06 00:28:12;;;;;;;6.10;5.60;;;;;;;2.70;88.10;101527.31;5052647;28;20443;-42
2021/12/06 00:30:39;;;;;;;10.60;6.03;;;;;;;2.73;88.52;101545.50;5052379;28;20944;-43
2021/12/06 00:33:07;;;;;;;6.30;5.80;;;;;;;2.74;87.70;101536.66;5052264;28;20478;-46
2021/12/06 00:35:35;;;;;;;6.70;5.47;;;;;;;2.76;87.64;101545.25;5051781;28;20467;-42
2021/12/06 00:38:02;;;;;;;5.63;5.10;;;;;;;2.78;87.22;101543.31;5052371;28;20801;-44
2021/12/06 00:40:33;;;;;;;5.90;5.23;;;;;;;2.82;87.31;101554.44;5051986;28;20434;-44
2021/12/06 00:43:03;;;;;;;5.50;5.20;;;;;;;2.81;87.54;101554.59;5052322;28;20433;-43
2021/12/06 00:45:31;;;;;;;6.10;5.60;;;;;;;2.78;87.47;101548.59;5051623;28;20467;-42
2021/12/06 00:48:00;;;;;;;7.33;5.70;;;;;;;2.77;88.02;101548.72;5052122;28;20428;-44
2021/12/06 00:50:31;;;;;;;7.43;6.00;;;;;;;2.78;88.10;101543.31;5052151;28;20432;-46
2021/12/06 00:52:58;;;;;;;6.07;5.53;;;;;;;2.72;87.96;101540.34;5051788;28;20432;-44
2021/12/06 00:55:26;;;;;;;8.30;5.90;;;;;;;2.72;88.15;101548.25;5051295;28;20469;-43
2021/12/06 00:57:54;;;;;;;7.13;5.60;;;;;;;2.75;87.89;101555.91;5052013;28;20932;-44
2021/12/06 01:00:26;;;;;;;6.73;6.23;;;;;;;2.72;87.84;101559.63;5052036;28;20438;-42
2021/12/06 01:02:56;;;;;;;5.73;5.37;;;;;;;2.75;87.84;101562.00;5051824;28;20509;-44
2021/12/06 01:05:25;;;;;;;6.77;6.20;;;;;;;2.74;87.86;101568.25;5051242;28;20554;-44
2021/12/06 01:07:54;;;;;;;8.13;5.60;;;;;;;2.71;88.77;101572.94;5052082;28;20768;-43
2021/12/06 01:10:23;;;;;;;6.40;6.00;;;;;;;2.75;87.63;101562.00;5051943;28;20440;-43
2021/12/06 01:12:55;;;;;;;7.30;6.00;;;;;;;2.75;87.61;101569.91;5051738;28;20839;-45
2021/12/06 01:15:25;;;;;;;5.93;5.43;;;;;;;2.75;88.16;101577.81;5051022;28;20464;-47
2021/12/06 01:17:55;;;;;;;6.37;5.60;;;;;;;2.76;87.50;101574.22;5062356;22;20479;-42
2021/12/06 01:20:27;;;;;;;6.63;5.93;;;;;;;2.73;88.28;101568.38;5031880;28;20432;-45
2021/12/06 01:23:00;;;;;;;6.07;5.50;;;;;;;2.69;88.92;101570.41;5031602;28;20943;-43
2021/12/06 01:25:33;;;;;;;6.27;5.43;;;;;;;2.72;88.42;101585.97;5031314;28;20460;-42
2021/12/06 01:30:57;;;;;;;5.80;5.40;;;;;;;2.62;89.36;101576.31;5031704;28;20520;-43
2021/12/06 01:39:13;;;;;;;5.43;5.03;;;;;;;2.66;87.73;101586.47;5031528;28;20801;-41
2021/12/06 01:41:45;;;;;;;10.10;5.60;;;;;;;2.67;87.52;101579.41;5012010;28;20776;-43
2021/12/06 01:44:14;;;;;;;6.30;5.70;;;;;;;2.66;88.08;101577.72;5011122;28;20466;-42
2021/12/06 01:46:46;;;;;;;6.93;5.00;;;;;;;2.62;88.38;101573.69;5011689;28;20453;-42
2021/12/06 01:49:15;;;;;;;6.30;5.80;;;;;;;2.64;88.17;101575.22;5012003;28;20432;-41
2021/12/06 01:51:45;;;;;;;12.93;6.10;;;;;;;2.64;88.20;101577.00;5011952;28;20779;-41
2021/12/06 01:54:14;;;;;;;5.93;5.33;;;;;;;2.65;88.16;101576.06;5010993;28;20572;-41
2021/12/06 01:56:43;;;;;;;5.93;5.50;;;;;;;2.65;87.71;101576.91;5011788;28;20459;-41
2021/12/06 01:59:11;;;;;;;5.90;5.60;;;;;;;2.65;88.41;101586.59;5011801;28;20441;-41
2021/12/06 02:01:39;;;;;;;5.80;5.50;;;;;;;2.65;88.09;101583.97;5012125;28;20807;-41
2021/12/06 02:04:08;;;;;;;7.20;5.30;;;;;;;2.66;87.78;101578.56;5011349;28;20477;-41
2021/12/06 02:06:37;;;;;;;6.30;5.80;;;;;;;2.65;88.11;101590.06;5011702;28;20437;-44
2021/12/06 02:09:07;;;;;;;5.43;5.03;;;;;;;2.65;88.54;101586.59;5013966;28;20441;-42
2021/12/06 02:11:36;;;;;;;12.83;5.17;;;;;;;2.67;88.06;101593.41;5015503;28;20433;-42
2021/12/06 02:14:18;;;;;;;6.40;5.57;;;;;;;2.64;87.78;101598.94;5014509;28;21057;-41
2021/12/06 02:16:59;;;;;;;5.27;4.97;;;;;;;2.69;87.94;101578.31;5015317;28;20834;-41
2021/12/06 02:19:32;;;;;;;5.53;5.03;;;;;;;2.65;87.08;101583.97;5015405;28;20433;-41
2021/12/06 02:22:02;;;;;;;6.23;5.73;;;;;;;2.65;87.29;101600.59;5015281;28;20439;-43
2021/12/06 02:24:32;;;;;;;9.00;5.80;;;;;;;2.69;86.59;101590.63;5014711;28;20849;-41
2021/12/06 02:27:00;;;;;;;5.00;4.63;;;;;;;2.72;86.25;101585.97;5014948;28;20457;-42
2021/12/06 02:29:29;;;;;;;5.30;4.90;;;;;;;2.72;86.37;101588.59;5015205;28;20443;-46
2021/12/06 02:31:56;;;;;;;5.63;5.10;;;;;;;2.74;86.24;101578.78;5014917;28;20931;-42
2021/12/06 02:34:24;;;;;;;5.50;5.10;;;;;;;2.77;85.70;101590.88;5014346;28;20872;-44
2021/12/06 02:36:52;;;;;;;6.80;4.37;;;;;;;2.75;86.54;101585.72;5014829;28;20970;-41
2021/12/06 02:39:28;;;;;;;6.43;5.60;;;;;;;2.75;86.51;101580.44;5029032;28;20440;-41
2021/12/06 02:41:57;;;;;;;6.03;4.73;;;;;;;2.78;86.27;101584.63;5034791;28;20454;-41
2021/12/06 02:44:25;;;;;;;5.37;4.87;;;;;;;2.77;86.47;101586.44;5024296;28;20457;-41
2021/12/06 02:46:52;;;;;;;5.80;5.30;;;;;;;2.80;86.34;101587.97;5014711;28;20455;-44
2021/12/06 02:49:21;;;;;;;11.33;5.53;;;;;;;2.77;85.83;101570.63;5014805;28;20469;-42
2021/12/06 02:51:50;;;;;;;5.77;5.37;;;;;;;2.84;85.20;101588.56;5015084;28;20463;-42
2021/12/06 02:54:19;;;;;;;5.70;5.20;;;;;;;2.83;85.95;101598.25;5013973;28;20481;-42
2021/12/06 02:56:55;;;;;;;6.17;5.63;;;;;;;2.82;86.96;101582.56;5014652;28;20816;-42
2021/12/06 02:59:25;;;;;;;7.13;5.50;;;;;;;2.80;87.21;101590.63;5014508;28;20443;-42
2021/12/06 03:01:56;;;;;;;9.63;5.70;;;;;;;2.81;87.47;101602.00;5014582;28;20430;-43
2021/12/06 03:04:24;;;;;;;5.67;5.07;;;;;;;2.83;87.93;101592.16;5013698;28;20467;-42
2021/12/06 03:06:55;;;;;;;6.23;5.70;;;;;;;2.81;88.62;101587.00;5014675;28;20460;-43
2021/12/06 03:09:24;;;;;;;7.90;5.17;;;;;;;2.80;88.58;101593.25;5014491;28;20439;-42
2021/12/06 03:11:58;;;;;;;5.67;5.27;;;;;;;2.81;87.96;101588.81;5014404;28;20440;-43
2021/12/06 03:14:28;;;;;;;6.23;5.67;;;;;;;2.80;88.02;101590.63;5013559;28;20481;-46
2021/12/06 03:16:58;;;;;;;6.97;5.03;;;;;;;2.79;87.79;101596.84;5014024;28;20461;-42
2021/12/06 03:19:26;;;;;;;5.20;4.70;;;;;;;2.78;88.53;101585.47;5014102;28;20561;-44
2021/12/06 03:21:54;;;;;;;5.97;5.67;;;;;;;2.80;88.52;101582.72;5014163;28;20429;-43
2021/12/06 03:24:22;;;;;;;5.73;5.20;;;;;;;2.79;88.83;101591.56;5013562;28;20473;-41
2021/12/06 03:26:51;;;;;;;7.97;6.10;;;;;;;2.75;88.08;101582.22;5013996;28;20453;-46
2021/12/06 03:29:20;;;;;;;6.03;5.40;;;;;;;2.69;86.93;101580.94;5013945;28;20444;-42
2021/12/06 03:31:49;;;;;;;14.73;5.80;;;;;;;2.66;86.29;101586.47;5013930;28;20430;-43
2021/12/06 03:34:19;;;;;;;6.80;6.40;;;;;;;2.67;85.55;101582.88;5013144;28;21009;-42
2021/12/06 03:36:47;;;;;;;11.00;6.90;;;;;;;2.64;84.35;101579.66;5013865;28;20445;-42
2021/12/06 03:39:23;;;;;;;7.73;7.30;;;;;;;2.62;81.88;101589.47;5013829;28;20437;-41
2021/12/06 03:41:53;;;;;;;8.17;7.57;;;;;;;2.60;82.16;101589.59;5013653;28;20433;-42
2021/12/06 03:44:22;;;;;;;9.00;6.60;;;;;;;2.62;81.99;101587.69;5013390;28;20465;-42
2021/12/06 03:46:53;;;;;;;7.83;7.27;;;;;;;2.59;82.12;101587.94;5013745;28;20767;-41
2021/12/06 03:49:21;;;;;;;8.30;7.50;;;;;;;2.62;82.08;101600.00;5013750;28;20441;-43
2021/12/06 03:51:49;;;;;;;7.73;7.13;;;;;;;2.64;81.40;101601.56;5013534;28;20900;-42
2021/12/06 03:54:21;;;;;;;7.93;7.33;;;;;;;2.63;81.11;101593.75;5012846;28;20816;-42
2021/12/06 03:56:50;;;;;;;8.13;6.53;;;;;;;2.66;80.42;101586.47;5013499;28;20480;-42
2021/12/06 03:59:18;;;;;;;7.30;6.53;;;;;;;2.67;79.50;101605.75;5013595;28;20444;-42
2021/12/06 04:01:47;;;;;;;7.20;6.60;;;;;;;2.68;79.08;101602.16;5013389;28;20988;-42
2021/12/06 04:04:16;;;;;;;8.80;8.10;;;;;;;2.67;78.83;101603.09;5012853;28;20540;-43
2021/12/06 04:06:44;;;;;;;8.10;7.40;;;;;;;2.70;77.79;101605.50;5013102;28;20450;-41
2021/12/06 04:09:13;;;;;;;9.40;7.30;;;;;;;2.70;77.24;101608.13;5013491;28;20443;-42
2021/12/06 04:11:41;;;;;;;11.63;7.60;;;;;;;2.70;76.73;101608.13;5013299;28;20900;-41
2021/12/06 04:14:09;;;;;;;6.77;6.23;;;;;;;2.75;76.02;101619.09;5012604;28;20483;-41
2021/12/06 04:16:37;;;;;;;9.77;7.17;;;;;;;2.78;76.20;101618.84;5012853;28;21009;-42
2021/12/06 04:19:08;;;;;;;8.10;7.27;;;;;;;2.82;75.92;101624.72;5013090;28;20544;-43
2021/12/06 04:21:36;;;;;;;7.03;6.60;;;;;;;2.86;75.04;101618.25;5013233;28;20433;-43
2021/12/06 04:24:05;;;;;;;6.90;6.40;;;;;;;2.89;74.58;101624.09;5012520;28;20469;-42
2021/12/06 04:26:33;;;;;;;6.73;6.33;;;;;;;2.92;74.48;101626.50;5012922;28;20429;-42
2021/12/06 04:29:01;;;;;;;6.67;6.10;;;;;;;2.94;73.91;101635.09;5013008;28;20433;-42
2021/12/06 04:31:31;;;;;;;7.80;6.63;;;;;;;2.97;73.65;101641.91;5012292;28;20520;-44
2021/12/06 04:34:00;;;;;;;6.53;6.10;;;;;;;2.95;75.12;101654.38;5012145;28;20469;-45
2021/12/06 04:36:39;;;;;;;5.40;5.20;;;;;;;2.70;80.47;101660.78;5012826;28;20472;-42
2021/12/06 04:39:08;;;;;;;3.70;3.50;;;;;;;2.52;81.45;101659.63;5013080;28;20429;-41
2021/12/06 04:41:38;;;;;;;4.07;3.87;;;;;;;2.44;80.60;101649.72;5005973;28;20463;-47
2021/12/06 04:44:06;;;;;;;4.23;4.00;;;;;;;2.41;79.41;101655.22;5012339;28;20469;-44
2021/12/06 04:46:34;;;;;;;4.67;4.27;;;;;;;2.33;79.82;101656.81;5012415;28;20853;-43
2021/12/06 04:49:02;;;;;;;5.10;4.20;;;;;;;2.26;79.66;101656.44;5012725;28;20441;-44
2021/12/06 04:51:30;;;;;;;4.60;4.33;;;;;;;2.16;80.12;101664.22;5012382;28;20433;-45
2021/12/06 04:54:00;;;;;;;5.50;5.10;;;;;;;2.06;79.90;101662.44;5011867;28;20473;-43
2021/12/06 04:56:30;;;;;;;6.20;5.80;;;;;;;2.01;77.81;101659.31;5012319;28;20477;-42
2021/12/06 04:59:09;;;;;;;5.73;5.23;;;;;;;1.93;76.81;101659.06;5012228;28;20445;-42
2021/12/06 05:01:37;;;;;;;6.67;5.80;;;;;;;1.81;76.58;101658.22;5012556;28;20436;-43
2021/12/06 05:04:09;;;;;;;7.30;5.60;;;;;;;1.76;74.84;101651.66;5011618;28;20473;-43
2021/12/06 05:06:41;;;;;;;6.53;6.17;;;;;;;1.75;72.93;101657.84;5012361;28;20791;-42
2021/12/06 05:09:14;;;;;;;6.00;5.50;;;;;;;1.65;71.85;101660.34;5012254;28;20464;-42
2021/12/06 05:11:43;;;;;;;5.90;5.23;;;;;;;1.64;71.19;101666.56;5012457;28;20433;-41
2021/12/06 05:14:12;;;;;;;6.00;5.80;;;;;;;1.58;70.74;101665.22;5011685;28;20514;-42
2021/12/06 05:16:39;;;;;;;7.07;6.77;;;;;;;1.53;70.08;101667.38;5011953;28;21016;-42
2021/12/06 05:19:08;;;;;;;5.87;5.57;;;;;;;1.50;69.35;101666.75;5012242;28;20536;-42
2021/12/06 05:21:36;;;;;;;7.10;6.80;;;;;;;1.45;68.81;101672.38;5012053;28;20429;-42
2021/12/06 05:24:07;;;;;;;7.47;6.73;;;;;;;1.47;67.13;101670.47;5011338;28;20468;-41
2021/12/06 05:26:37;;;;;;;6.90;6.30;;;;;;;1.44;65.56;101668.06;5012089;28;20856;-41
2021/12/06 05:29:07;;;;;;;6.47;6.17;;;;;;;1.46;64.47;101681.94;5012043;28;20421;-42
2021/12/06 05:31:39;;;;;;;6.33;6.00;;;;;;;1.46;64.60;101692.47;5012097;28;20528;-42
2021/12/06 05:34:13;;;;;;;6.80;6.30;;;;;;;1.46;64.72;101689.00;5011357;28;20477;-44
2021/12/06 05:36:42;;;;;;;6.47;6.07;;;;;;;1.45;64.88;101684.69;5011988;28;20487;-42
2021/12/06 05:39:10;;;;;;;6.60;6.10;;;;;;;1.47;64.26;101694.13;5011824;28;20456;-43
2021/12/06 05:41:39;;;;;;;6.00;5.70;;;;;;;1.49;64.14;101688.75;5011952;28;20443;-41
2021/12/06 05:44:07;;;;;;;5.80;5.50;;;;;;;1.51;63.25;101687.69;5015259;28;20453;-42
2021/12/06 05:46:35;;;;;;;5.67;5.47;;;;;;;1.53;63.97;101683.16;5015968;28;20807;-42
2021/12/06 05:49:03;;;;;;;6.97;6.47;;;;;;;1.53;63.20;101683.16;5015789;28;20805;-42
2021/12/06 05:51:31;;;;;;;5.50;5.20;;;;;;;1.54;63.34;101676.94;5015794;28;20442;-41
2021/12/06 05:53:58;;;;;;;5.00;4.80;;;;;;;1.56;62.59;101677.66;5015212;28;20564;-41
2021/12/06 05:56:27;;;;;;;5.70;5.50;;;;;;;1.57;62.23;101674.09;5015699;28;20572;-42
2021/12/06 05:58:56;;;;;;;6.90;6.23;;;;;;;1.59;61.74;101677.44;5015686;28;20466;-45
2021/12/06 06:01:29;;;;;;;5.63;5.33;;;;;;;1.60;60.94;101679.13;5015609;28;20435;-41
2021/12/06 06:04:00;;;;;;;6.20;5.83;;;;;;;1.62;60.11;101687.72;5015134;28;20467;-44
2021/12/06 06:06:29;;;;;;;6.80;6.40;;;;;;;1.65;59.71;101684.84;5015652;28;20457;-43
2021/12/06 06:08:57;;;;;;;6.60;6.30;;;;;;;1.67;59.51;101688.19;5015504;28;20437;-44
2021/12/06 06:11:25;;;;;;;8.03;7.43;;;;;;;1.69;60.06;101690.72;5015408;28;20944;-42
2021/12/06 06:13:53;;;;;;;6.43;6.13;;;;;;;1.67;59.97;101695.28;5014715;28;20461;-43
2021/12/06 06:16:25;;;;;;;7.00;6.60;;;;;;;1.71;58.93;101703.72;5015276;28;20480;-42
2021/12/06 06:18:52;;;;;;;7.23;6.73;;;;;;;1.76;57.89;101701.63;5015392;28;20437;-42
2021/12/06 06:21:20;;;;;;;7.00;6.47;;;;;;;1.80;58.29;101703.03;5015395;28;20893;-42
2021/12/06 06:23:48;;;;;;;8.80;8.30;;;;;;;1.86;57.62;101707.84;5014484;28;20461;-43
2021/12/06 06:26:15;;;;;;;8.60;7.10;;;;;;;1.89;57.59;101710.22;5015150;28;20425;-42
2021/12/06 06:28:43;;;;;;;7.07;6.57;;;;;;;1.89;58.80;101711.06;5015362;28;20468;-42
2021/12/06 06:31:11;;;;;;;7.43;6.93;;;;;;;1.94;58.25;101700.22;5015213;28;20934;-43
2021/12/06 06:33:40;;;;;;;6.90;6.23;;;;;;;1.94;59.05;101708.91;5014369;28;20464;-44
2021/12/06 06:36:08;;;;;;;6.23;5.83;;;;;;;1.94;59.51;101716.81;5014928;28;20435;-43
2021/12/06 06:38:35;;;;;;;6.37;5.97;;;;;;;1.95;59.47;101710.59;5014712;28;20523;-42
2021/12/06 06:41:03;;;;;;;6.63;6.30;;;;;;;1.92;59.96;101710.00;5014748;28;20513;-42
2021/12/06 06:43:31;;;;;;;6.97;6.37;;;;;;;1.96;58.70;101704.41;5014332;28;20425;-45
2021/12/06 06:45:59;;;;;;;5.87;5.50;;;;;;;1.98;58.49;101713.00;5014929;28;20529;-42
2021/12/06 06:48:27;;;;;;;11.57;6.40;;;;;;;2.01;57.93;101718.03;5014664;28;20491;-46
2021/12/06 06:50:56;;;;;;;8.67;7.17;;;;;;;2.01;58.71;101710.13;5014761;28;20429;-41
2021/12/06 06:53:23;;;;;;;7.33;5.60;;;;;;;2.00;58.76;101708.44;5013486;28;20798;-41
2021/12/06 06:55:51;;;;;;;6.50;5.90;;;;;;;2.00;58.90;101718.16;5014644;28;20433;-45
2021/12/06 06:58:19;;;;;;;7.60;6.00;;;;;;;2.00;58.71;101721.59;5014687;28;20808;-43
2021/12/06 07:00:46;;;;;;;8.63;6.67;;;;;;;2.00;58.66;101726.06;5014680;28;20433;-41
2021/12/06 07:03:14;;;;;;;6.40;5.93;;;;;;;2.02;58.83;101726.75;5014406;28;20444;-43
2021/12/06 07:05:42;;;;;;;9.70;6.20;;;;;;;2.04;58.83;101733.56;5014272;28;20445;-42
2021/12/06 07:08:11;;;;;;;5.83;5.50;;;;;;;2.06;59.05;101736.09;5014262;28;20453;-44
2021/12/06 07:10:39;;;;;;;6.30;5.90;;;;;;;2.06;60.10;101733.47;5014621;28;20441;-42
2021/12/06 07:13:10;;;;;;;6.20;5.80;;;;;;;2.06;60.21;101733.47;5014097;28;20448;-41
2021/12/06 07:15:39;;;;;;;6.60;6.20;;;;;;;2.04;60.55;101730.09;5013874;28;20467;-46
2021/12/06 07:18:10;;;;;;;6.27;5.87;;;;;;;2.02;60.63;101727.59;5014493;28;20481;-41
2021/12/06 07:20:38;;;;;;;6.43;6.03;;;;;;;2.03;60.63;101717.94;5014414;28;20441;-43
2021/12/06 07:23:05;;;;;;;14.73;7.47;;;;;;;2.04;61.07;101719.56;5014461;28;20437;-42
2021/12/06 07:25:35;;;;;;;7.00;6.50;;;;;;;2.06;60.22;101712.44;5013621;28;21178;-42
2021/12/06 07:28:05;;;;;;;7.93;7.17;;;;;;;2.04;61.52;101719.56;5014024;28;20449;-42
2021/12/06 07:30:32;;;;;;;7.33;6.70;;;;;;;2.08;60.03;101721.03;5014024;28;20444;-43
2021/12/06 07:33:01;;;;;;;7.97;7.20;;;;;;;2.10;60.41;101722.59;5013651;28;20519;-44
2021/12/06 07:35:29;;;;;;;8.53;7.80;;;;;;;2.07;61.62;101728.06;5013448;28;20462;-43
2021/12/06 07:38:00;;;;;;;8.30;7.50;;;;;;;2.09;61.51;101718.25;5013761;28;20496;-42
2021/12/06 07:40:28;;;;;;;7.23;6.53;;;;;;;2.11;61.25;101719.00;5013667;28;20433;-42
2021/12/06 07:42:58;;;;;;;8.17;7.57;;;;;;;2.11;61.27;101716.38;5013550;28;20436;-42
2021/12/06 07:45:26;;;;;;;7.67;7.07;;;;;;;2.13;61.27;101721.50;5013137;28;20471;-46
2021/12/06 07:47:53;;;;;;;8.70;7.97;;;;;;;2.13;61.75;101724.97;5013749;28;20455;-43
2021/12/06 07:50:22;;;;;;;8.63;8.03;;;;;;;2.16;61.62;101722.09;5013669;28;20437;-42
2021/12/06 07:52:51;;;;;;;7.87;7.37;;;;;;;2.20;60.93;101727.97;5013425;28;20448;-43
2021/12/06 07:55:21;;;;;;;7.70;7.10;;;;;;;2.24;61.53;101708.34;5013002;28;20469;-42
2021/12/06 07:57:49;;;;;;;8.60;7.77;;;;;;;2.24;62.53;101710.97;5013405;28;20839;-44
2021/12/06 08:00:21;;;;;;;7.10;6.60;;;;;;;2.28;62.58;101701.06;5013591;28;20438;-45
2021/12/06 08:02:49;;;;;;;7.20;6.70;;;;;;;2.28;64.01;101712.41;5013172;28;20911;-45
2021/12/06 08:05:33;;;;;;;7.60;6.93;;;;;;;2.28;64.76;101704.53;5012192;28;20471;-44
2021/12/06 08:08:04;;;;;;;7.50;6.80;;;;;;;2.32;65.13;101703.34;5013219;28;20488;-45
2021/12/06 08:10:34;;;;;;;8.40;7.63;;;;;;;2.36;65.19;101686.31;5013084;28;20441;-42
2021/12/06 08:13:03;;;;;;;7.97;7.27;;;;;;;2.41;66.05;101683.34;5013422;28;20477;-42
2021/12/06 08:15:32;;;;;;;7.90;7.33;;;;;;;2.45;66.58;101684.78;5012613;28;20469;-45
2021/12/06 08:18:00;;;;;;;8.73;7.30;;;;;;;2.46;68.26;101668.00;5012848;28;20850;-42
2021/12/06 08:20:27;;;;;;;8.67;7.83;;;;;;;2.42;70.58;101664.78;5013000;28;20536;-42
2021/12/06 08:22:55;;;;;;;9.40;7.60;;;;;;;2.40;71.72;101657.97;5012626;28;20850;-42
2021/12/06 08:25:23;;;;;;;7.47;7.00;;;;;;;2.40;73.36;101650.06;5012536;28;20826;-42
2021/12/06 08:27:52;;;;;;;7.50;6.90;;;;;;;2.39;76.11;101648.41;5013073;28;20455;-44
2021/12/06 08:30:22;;;;;;;6.90;6.50;;;;;;;2.47;75.37;101643.38;5012929;28;20969;-43
2021/12/06 08:32:53;;;;;;;7.20;6.70;;;;;;;2.51;76.82;101645.63;5012624;28;20529;-43
2021/12/06 08:35:35;;;;;;;6.83;6.33;;;;;;;2.58;76.56;101641.56;5012198;28;21019;-42
2021/12/06 08:38:04;;;;;;;7.83;7.33;;;;;;;2.58;79.65;101649.44;5012770;28;20852;-42
2021/12/06 08:40:32;;;;;;;10.37;7.40;;;;;;;2.60;81.14;101654.56;5012707;28;20465;-43
2021/12/06 08:43:00;;;;;;;8.53;7.63;;;;;;;2.66;81.63;101659.34;5012505;28;20430;-43
2021/12/06 08:45:29;;;;;;;7.63;7.10;;;;;;;2.70;83.81;101663.44;5012246;28;20856;-44
2021/12/06 08:47:59;;;;;;;8.97;7.57;;;;;;;2.75;83.24;101664.72;5012503;28;20450;-45
2021/12/06 08:50:29;;;;;;;13.83;7.30;;;;;;;2.76;85.04;101663.78;5012610;28;20443;-42
2021/12/06 08:52:56;;;;;;;8.57;7.57;;;;;;;2.71;86.57;101659.84;5012513;28;20459;-43
2021/12/06 08:55:25;;;;;;;8.20;7.40;;;;;;;2.69;86.68;101652.06;5012095;28;20492;-44
2021/12/06 08:57:55;;;;;;;8.10;7.50;;;;;;;2.72;86.37;101656.22;5012271;28;20511;-44
2021/12/06 09:00:26;;;;;;;8.20;7.50;;;;;;;2.73;87.07;101660.53;5012184;28;20445;-42
2021/12/06 09:02:54;;;;;;;7.83;7.13;;;;;;;2.75;87.09;101658.63;5012089;28;20440;-43
2021/12/06 09:05:26;;;;;;;8.93;8.43;;;;;;;2.69;87.93;101665.22;5011841;28;20523;-42
2021/12/06 09:07:54;;;;;;;7.67;7.10;;;;;;;2.71;88.35;101662.47;5012291;28;20452;-46
2021/12/06 09:10:22;;;;;;;8.70;8.07;;;;;;;2.68;88.95;101660.94;5012281;28;20434;-42
2021/12/06 09:12:50;;;;;;;8.70;8.00;;;;;;;2.64;89.15;101662.13;5011965;28;20438;-44
2021/12/06 09:15:20;;;;;;;8.30;7.70;;;;;;;2.72;87.88;101664.13;5011561;28;20475;-42
2021/12/06 09:17:48;;;;;;;7.30;6.60;;;;;;;2.72;88.32;101659.69;5011711;28;20924;-43
2021/12/06 09:20:18;;;;;;;7.30;6.90;;;;;;;2.72;89.00;101672.88;5012180;28;20425;-43
2021/12/06 09:22:48;;;;;;;8.57;7.80;;;;;;;2.70;89.82;101668.69;5011864;28;20429;-42
2021/12/06 09:25:17;;;;;;;8.67;7.17;;;;;;;2.75;89.38;101667.34;5012104;28;20540;-46
2021/12/06 09:27:46;;;;;;;6.43;6.03;;;;;;;2.78;89.75;101674.16;5011891;28;20564;-42
2021/12/06 09:30:18;;;;;;;7.00;6.50;;;;;;;2.76;90.20;101666.41;5011900;28;20437;-43
2021/12/06 09:32:47;;;;;;;8.50;7.77;;;;;;;2.85;89.67;101674.53;5011859;28;20433;-42
2021/12/06 09:35:20;;;;;;;7.63;6.93;;;;;;;2.92;89.82;101680.97;5011564;28;20473;-42
2021/12/06 09:37:50;;;;;;;7.50;6.83;;;;;;;2.91;90.92;101679.28;5011772;28;20455;-42
2021/12/06 09:40:18;;;;;;;7.63;7.13;;;;;;;2.97;91.54;101674.38;5011614;28;20433;-42
2021/12/06 09:42:47;;;;;;;8.37;7.70;;;;;;;2.98;91.46;101668.16;5011840;28;20507;-42
2021/12/06 09:45:19;;;;;;;7.77;7.07;;;;;;;2.96;91.86;101670.03;5011358;28;20465;-43
2021/12/06 09:47:51;;;;;;;7.50;7.00;;;;;;;3.04;91.46;101665.00;5011946;28;20841;-44
2021/12/06 09:50:21;;;;;;;7.73;7.23;;;;;;;3.06;91.59;101675.41;5011887;28;20445;-43
2021/12/06 09:52:51;;;;;;;8.30;7.60;;;;;;;3.09;92.01;101667.25;5011551;28;20476;-42
2021/12/06 09:55:19;;;;;;;6.53;6.13;;;;;;;3.14;91.96;101667.69;5011366;28;20820;-44
2021/12/06 09:57:47;;;;;;;6.50;6.20;;;;;;;3.15;92.22;101658.84;5011888;28;20449;-42
2021/12/06 10:00:17;;;;;;;7.23;6.83;;;;;;;3.19;92.46;101668.19;5011902;28;20437;-42
2021/12/06 10:02:45;;;;;;;8.00;7.40;;;;;;;3.21;92.39;101656.53;5011724;28;20477;-42
2021/12/06 10:05:13;;;;;;;7.93;5.67;;;;;;;3.29;92.05;101664.66;5011247;28;20887;-42
2021/12/06 10:07:41;;;;;;;6.47;5.97;;;;;;;3.33;92.33;101658.16;5011832;28;20445;-42
2021/12/06 10:10:13;;;;;;;6.03;5.50;;;;;;;3.24;92.52;101656.28;5011775;28;20433;-42
2021/12/06 10:12:43;;;;;;;7.50;6.80;;;;;;;3.29;92.54;101651.47;5011411;28;20434;-42
2021/12/06 10:15:11;;;;;;;6.47;6.17;;;;;;;3.37;92.13;101650.00;5011141;28;20460;-42
2021/12/06 10:17:39;;;;;;;6.13;5.83;;;;;;;3.40;92.18;101647.09;5011222;28;20468;-46
2021/12/06 10:20:09;;;;;;;5.57;5.33;;;;;;;3.48;92.16;101648.13;5011680;28;20476;-42
2021/12/06 10:22:37;;;;;;;5.73;5.43;;;;;;;3.48;91.42;101653.41;5011261;28;20437;-43
2021/12/06 10:25:06;;;;;;;5.30;5.10;;;;;;;3.53;91.21;101647.72;5011264;28;20461;-42
2021/12/06 10:28:00;;;;;;;6.37;5.90;;;;;;;3.57;91.03;101639.44;5011305;28;20464;-44
2021/12/06 10:30:28;;;;;;;6.10;5.50;;;;;;;3.62;90.94;101628.50;5014278;28;21032;-42
2021/12/06 10:33:03;;;;;;;6.07;5.83;;;;;;;3.63;90.59;101624.91;5015035;28;20536;-42
2021/12/06 10:35:31;;;;;;;5.93;5.63;;;;;;;3.71;91.28;101612.72;5014638;28;20467;-45
2021/12/06 10:38:00;;;;;;;6.60;6.20;;;;;;;3.77;90.79;101611.38;5015089;28;20453;-43
2021/12/06 10:40:31;;;;;;;5.70;5.30;;;;;;;3.79;90.51;101606.81;5014601;28;20472;-42
2021/12/06 10:43:03;;;;;;;5.77;5.50;;;;;;;3.77;89.52;101599.00;5015100;28;20440;-44
2021/12/06 10:45:34;;;;;;;5.70;5.10;;;;;;;3.83;89.63;101616.97;5014517;28;20453;-42
2021/12/06 10:48:12;;;;;;;5.50;5.10;;;;;;;3.75;88.26;101611.50;5014756;28;21021;-42
2021/12/06 10:50:44;;;;;;;4.63;4.43;;;;;;;3.70;87.85;101600.50;5014797;28;20490;-46
2021/12/06 10:53:12;;;;;;;5.67;5.27;;;;;;;3.66;87.62;101599.09;5014502;28;20437;-42
2021/12/06 10:55:43;;;;;;;5.37;4.97;;;;;;;3.73;87.31;101591.50;5014637;28;20448;-42
2021/12/06 10:58:15;;;;;;;5.37;5.07;;;;;;;3.73;87.33;101604.69;5014778;28;20453;-42
2021/12/06 11:00:47;;;;;;;5.23;4.90;;;;;;;3.78;87.30;101598.06;5014661;28;20451;-44
2021/12/06 11:03:23;;;;;;;5.30;5.00;;;;;;;3.78;86.82;101595.41;5013817;28;20434;-43
2021/12/06 11:05:54;;;;;;;5.97;5.67;;;;;;;3.79;87.05;101596.25;5014545;28;20524;-42
2021/12/06 11:08:23;;;;;;;5.43;5.10;;;;;;;3.71;87.04;101588.97;5014404;28;20967;-43
2021/12/06 11:10:58;;;;;;;6.30;6.00;;;;;;;3.66;86.95;101590.34;5014438;28;20935;-43
2021/12/06 11:13:29;;;;;;;5.77;5.30;;;;;;;3.55;87.11;101590.44;5013712;28;20439;-44
2021/12/06 11:16:08;;;;;;;6.20;5.80;;;;;;;3.52;87.70;101577.53;5014205;28;20425;-43
2021/12/06 11:18:40;;;;;;;7.10;6.40;;;;;;;3.51;87.64;101579.31;5014021;28;20472;-42
2021/12/06 11:21:28;;;;;;;6.77;6.27;;;;;;;3.53;88.04;101572.09;5014383;28;20464;-44
2021/12/06 11:24:03;;;;;;;6.10;5.83;;;;;;;3.58;88.39;101567.28;5013470;28;20472;-43
2021/12/06 11:26:32;;;;;;;6.30;5.90;;;;;;;3.53;88.47;101574.72;5013973;28;20428;-44
2021/12/06 11:29:09;;;;;;;6.77;6.17;;;;;;;3.52;88.65;101573.09;5014256;28;20508;-45
2021/12/06 11:31:38;;;;;;;6.10;5.80;;;;;;;3.55;88.33;101570.19;5014189;28;20811;-42
2021/12/06 11:34:08;;;;;;;5.83;5.40;;;;;;;3.63;89.23;101574.78;5013392;28;20477;-42
2021/12/06 11:36:40;;;;;;;6.80;6.30;;;;;;;3.55;88.44;101569.34;5013805;28;20528;-42
2021/12/06 11:39:11;;;;;;;6.83;6.30;;;;;;;3.49;89.00;101568.06;5013861;28;20510;-43
2021/12/06 11:41:43;;;;;;;7.00;6.60;;;;;;;3.47;88.83;101569.97;5013829;28;20429;-42
2021/12/06 11:44:20;;;;;;;7.00;6.40;;;;;;;3.55;89.29;101558.78;5013268;28;20831;-43
2021/12/06 11:46:54;;;;;;;6.20;5.80;;;;;;;3.56;89.73;101561.28;5013735;28;20449;-42
2021/12/06 11:49:28;;;;;;;6.90;6.50;;;;;;;3.58;89.00;101559.38;5013638;28;20946;-44
2021/12/06 11:51:57;;;;;;;6.70;6.20;;;;;;;3.52;88.87;101565.19;5013784;28;20439;-42
2021/12/06 11:54:24;;;;;;;6.53;6.03;;;;;;;3.51;88.90;101571.41;5012813;28;20465;-42